Terminal Aerodrome Forecast
Issued by NWS St Louis, MO

Home | Current Version | Previous Version | Graphics & Text | Print | Product List | Glossary On
Versions: 1 2 3 4 5 6 7 8 9 10 11 12 13 14 15 16 17 18 19 20 21 22 23 24 25 26 27
264
FTUS43 KLSX 260310 AAB
TAFSTL
TAF AMD
KSTL 260310Z 2603/2706 23007KT P6SM VCSH SCT035 BKN100
     FM260500 VRB04KT P6SM SCT100 BKN250
     FM261500 22005KT P6SM FEW040 SCT250
     FM270100 VRB04KT P6SM SKC=

USA.gov is the U.S. government's official web portal to all federal, state and local government web resources and services.